Time;durP1;ratioP1;P1;durP2;ratioP2;P2;SDS_P1;SDS_P2;PMS_P1;PMS_P2;Temp;Humidity;BMP_temperature;BMP_pressure;BME280_temperature;BME280_humidity;BME280_pressure;Samples;Min_cycle;Max_cycle;Signal;HPM_P1;HPM_P2
2023/10/06 00:01:56;;;;;;;18.75;10.02;;;;;;;;;;5103125;28;20024;-40
2023/10/06 00:04:22;;;;;;;22.00;10.50;;;;;;;;;;5103083;28;20070;-39
2023/10/06 00:06:49;;;;;;;14.63;9.73;;;;;;;;;;5097528;28;20039;-39
2023/10/06 00:09:25;;;;;;;14.90;9.70;;;;;;;;;;5091073;28;20040;-44
2023/10/06 00:11:55;;;;;;;13.05;9.32;;;;;;;;;;5103814;28;20070;-46
2023/10/06 00:14:40;;;;;;;14.52;9.32;;;;;;;;;;5100639;28;20027;-38
2023/10/06 00:17:16;;;;;;;11.57;8.30;;;;;;;;;;5085092;28;20092;-40
2023/10/06 00:19:43;;;;;;;16.80;9.77;;;;;;;;;;5093943;28;20028;-45
2023/10/06 00:22:17;;;;;;;14.80;9.57;;;;;;;;;;5096404;28;20079;-40
2023/10/06 00:24:51;;;;;;;16.52;9.27;;;;;;;;;;5093973;28;20181;-35
2023/10/06 00:27:29;;;;;;;14.20;9.13;;;;;;;;;;5086515;28;20073;-42
2023/10/06 00:29:56;;;;;;;10.80;8.88;;;;;;;;;;5095718;28;20025;-40
2023/10/06 00:32:26;;;;;;;16.45;10.48;;;;;;;;;;5100532;28;20028;-44
2023/10/06 00:35:22;;;;;;;13.23;10.38;;;;;;;;;;5099523;28;20051;-40
2023/10/06 00:37:46;;;;;;;14.23;9.82;;;;;;;;;;5084882;28;20036;-42
2023/10/06 00:40:19;;;;;;;13.50;9.73;;;;;;;;;;5092910;28;20043;-47
2023/10/06 00:43:00;;;;;;;13.57;8.82;;;;;;;;;;5084147;28;20052;-41
2023/10/06 00:45:30;;;;;;;11.15;8.43;;;;;;;;;;5085099;28;20208;-40
2023/10/06 00:47:57;;;;;;;12.00;8.73;;;;;;;;;;5084704;28;20228;-38
2023/10/06 00:50:24;;;;;;;12.10;8.40;;;;;;;;;;5084842;28;20117;-41
2023/10/06 00:52:55;;;;;;;14.20;8.43;;;;;;;;;;5083663;28;20017;-42
2023/10/06 00:55:22;;;;;;;9.10;7.67;;;;;;;;;;5083114;28;20095;-40
2023/10/06 00:57:53;;;;;;;10.75;8.00;;;;;;;;;;5083758;28;20039;-37
2023/10/06 01:00:24;;;;;;;9.98;7.57;;;;;;;;;;5084837;28;20020;-44
2023/10/06 01:02:51;;;;;;;10.67;7.17;;;;;;;;;;5084725;28;20028;-43
2023/10/06 01:05:19;;;;;;;10.10;7.43;;;;;;;;;;5084217;28;20052;-36
2023/10/06 01:07:46;;;;;;;13.10;8.02;;;;;;;;;;5084388;28;20347;-35
2023/10/06 01:10:17;;;;;;;9.77;7.05;;;;;;;;;;5084663;28;20028;-45
2023/10/06 01:12:51;;;;;;;11.85;7.97;;;;;;;;;;5084351;28;20039;-49
2023/10/06 01:15:20;;;;;;;11.80;8.35;;;;;;;;;;5084459;28;20025;-50
2023/10/06 01:17:53;;;;;;;12.10;7.80;;;;;;;;;;5084152;28;20028;-51
2023/10/06 01:23:27;;;;;;;9.93;7.90;;;;;;;;;;5079444;28;20489;-47
2023/10/06 01:25:55;;;;;;;11.30;7.50;;;;;;;;;;5084486;28;20025;-47
2023/10/06 01:28:23;;;;;;;11.50;7.53;;;;;;;;;;5084197;28;20032;-41
2023/10/06 01:30:51;;;;;;;10.15;7.30;;;;;;;;;;5084361;28;20304;-49
2023/10/06 01:33:18;;;;;;;8.85;7.10;;;;;;;;;;5084065;28;20084;-42
2023/10/06 01:35:49;;;;;;;13.48;7.18;;;;;;;;;;5084295;28;20035;-46
2023/10/06 01:38:22;;;;;;;11.38;6.97;;;;;;;;;;5083987;28;20020;-43
2023/10/06 01:40:56;;;;;;;8.40;7.43;;;;;;;;;;5084272;28;20087;-37
2023/10/06 01:43:23;;;;;;;8.13;6.78;;;;;;;;;;5083717;28;20028;-42
2023/10/06 01:45:50;;;;;;;8.75;7.20;;;;;;;;;;5084331;28;20033;-45
2023/10/06 01:50:50;;;;;;;9.55;6.97;;;;;;;;;;5096850;28;20245;-51
2023/10/06 01:53:19;;;;;;;10.60;7.22;;;;;;;;;;5083728;28;20050;-44
2023/10/06 01:55:50;;;;;;;11.55;7.10;;;;;;;;;;5084025;28;20028;-43
2023/10/06 01:58:17;;;;;;;12.65;7.10;;;;;;;;;;5088058;28;20083;-45
2023/10/06 02:00:48;;;;;;;12.05;6.78;;;;;;;;;;5102145;28;20028;-51
2023/10/06 02:03:20;;;;;;;10.67;7.17;;;;;;;;;;5104326;28;20107;-50
2023/10/06 02:05:47;;;;;;;9.57;7.03;;;;;;;;;;5100984;28;20268;-47
2023/10/06 02:08:26;;;;;;;7.82;6.43;;;;;;;;;;5103694;28;20039;-50
2023/10/06 02:10:55;;;;;;;12.18;7.07;;;;;;;;;;5104347;28;20024;-46
2023/10/06 02:13:21;;;;;;;10.68;6.57;;;;;;;;;;5103830;28;20055;-46
2023/10/06 02:16:01;;;;;;;9.27;7.25;;;;;;;;;;5104017;28;20027;-37
2023/10/06 02:18:37;;;;;;;10.63;7.03;;;;;;;;;;5103790;28;20372;-45
2023/10/06 02:21:23;;;;;;;9.18;7.90;;;;;;;;;;5103961;28;20031;-42
2023/10/06 02:23:51;;;;;;;13.43;9.15;;;;;;;;;;5104097;28;20032;-41
2023/10/06 02:26:17;;;;;;;11.57;9.82;;;;;;;;;;5101629;28;20042;-37
2023/10/06 02:28:54;;;;;;;15.23;10.13;;;;;;;;;;5101222;28;20227;-35
2023/10/06 02:31:21;;;;;;;12.00;9.95;;;;;;;;;;5094648;28;20070;-36
2023/10/06 02:33:50;;;;;;;14.07;8.93;;;;;;;;;;5104016;28;20036;-40
2023/10/06 02:36:23;;;;;;;9.80;7.63;;;;;;;;;;5104131;28;20020;-43
2023/10/06 02:38:50;;;;;;;9.13;7.25;;;;;;;;;;5103552;28;20020;-34
2023/10/06 02:41:18;;;;;;;9.13;6.88;;;;;;;;;;5104175;28;20058;-40
2023/10/06 02:43:49;;;;;;;12.48;7.47;;;;;;;;;;5103275;28;20016;-39
2023/10/06 02:46:16;;;;;;;129.68;20.60;;;;;;;;;;5092638;28;20368;-39
2023/10/06 02:48:51;;;;;;;50.53;13.40;;;;;;;;;;5093378;28;20091;-46
2023/10/06 02:51:20;;;;;;;21.58;10.60;;;;;;;;;;5083824;28;20209;-37
2023/10/06 02:53:50;;;;;;;17.25;9.23;;;;;;;;;;5083103;28;20282;-39
2023/10/06 02:56:28;;;;;;;14.27;8.10;;;;;;;;;;5083646;28;20017;-43
2023/10/06 02:58:59;;;;;;;14.90;8.27;;;;;;;;;;5087801;28;20106;-37
2023/10/06 03:01:27;;;;;;;16.35;7.88;;;;;;;;;;5093040;28;20071;-37
2023/10/06 03:04:06;;;;;;;9.80;7.07;;;;;;;;;;5103381;28;20028;-35
2023/10/06 03:06:32;;;;;;;8.27;6.68;;;;;;;;;;5105205;28;20056;-42
2023/10/06 03:09:06;;;;;;;9.48;6.90;;;;;;;;;;5107041;28;20028;-38
2023/10/06 03:11:33;;;;;;;10.70;6.95;;;;;;;;;;5107410;28;20024;-39
2023/10/06 03:14:00;;;;;;;8.27;6.30;;;;;;;;;;5106978;28;20130;-46
2023/10/06 03:16:27;;;;;;;9.25;7.38;;;;;;;;;;5107390;28;20039;-43
2023/10/06 03:18:54;;;;;;;9.77;6.60;;;;;;;;;;5106765;28;20024;-49
2023/10/06 03:21:22;;;;;;;11.43;7.78;;;;;;;;;;5107257;28;20044;-45
2023/10/06 03:24:05;;;;;;;8.82;6.80;;;;;;;;;;5106693;28;20024;-51
2023/10/06 03:26:34;;;;;;;10.52;7.22;;;;;;;;;;5099116;28;20028;-46
2023/10/06 03:29:11;;;;;;;8.52;6.65;;;;;;;;;;5089642;28;20079;-48
2023/10/06 03:31:46;;;;;;;10.38;6.78;;;;;;;;;;5088731;28;20325;-47
2023/10/06 03:34:16;;;;;;;6.80;6.10;;;;;;;;;;5093436;28;20147;-50
2023/10/06 03:36:51;;;;;;;8.73;6.50;;;;;;;;;;5095403;28;20098;-40
2023/10/06 03:39:31;;;;;;;6.93;6.15;;;;;;;;;;5094647;28;20312;-44
2023/10/06 03:42:06;;;;;;;7.85;6.45;;;;;;;;;;5094450;28;20023;-44
2023/10/06 03:44:34;;;;;;;10.43;6.60;;;;;;;;;;5087961;28;20040;-43
2023/10/06 03:47:01;;;;;;;7.72;6.35;;;;;;;;;;5086031;28;20346;-43
2023/10/06 03:49:33;;;;;;;7.65;6.10;;;;;;;;;;5096980;28;20024;-39
2023/10/06 03:51:59;;;;;;;6.40;5.70;;;;;;;;;;5100274;28;20077;-48
2023/10/06 03:54:26;;;;;;;10.32;6.35;;;;;;;;;;5106290;28;20365;-50
2023/10/06 03:56:53;;;;;;;10.82;6.65;;;;;;;;;;5106074;28;20065;-43
2023/10/06 03:59:21;;;;;;;8.93;6.72;;;;;;;;;;5106143;28;20048;-40
2023/10/06 04:01:47;;;;;;;6.45;5.53;;;;;;;;;;5105018;28;20020;-45
2023/10/06 04:04:15;;;;;;;10.07;6.22;;;;;;;;;;5105886;28;20036;-44
2023/10/06 04:06:43;;;;;;;8.23;6.20;;;;;;;;;;5105738;28;20051;-49
2023/10/06 04:09:11;;;;;;;7.57;6.18;;;;;;;;;;5102741;28;20040;-52
2023/10/06 04:11:37;;;;;;;7.95;6.00;;;;;;;;;;5095654;28;20280;-43
2023/10/06 04:14:05;;;;;;;9.63;5.57;;;;;;;;;;5106186;28;20016;-49
2023/10/06 04:16:45;;;;;;;8.82;6.25;;;;;;;;;;5105898;28;20173;-40
2023/10/06 04:19:16;;;;;;;10.80;6.20;;;;;;;;;;5105186;28;20112;-46
2023/10/06 04:21:43;;;;;;;9.77;6.45;;;;;;;;;;5105738;28;20027;-47
2023/10/06 04:24:10;;;;;;;14.13;6.95;;;;;;;;;;5105393;28;20028;-35
2023/10/06 04:26:37;;;;;;;6.90;5.85;;;;;;;;;;5105434;28;20032;-47
2023/10/06 04:29:04;;;;;;;6.63;5.95;;;;;;;;;;5105858;28;20023;-38
2023/10/06 04:31:31;;;;;;;9.60;6.15;;;;;;;;;;5105809;28;20038;-45
2023/10/06 04:33:58;;;;;;;8.48;6.43;;;;;;;;;;5105465;28;20012;-40
2023/10/06 04:36:25;;;;;;;8.30;5.97;;;;;;;;;;5105964;28;20308;-48
2023/10/06 04:38:51;;;;;;;8.90;5.97;;;;;;;;;;5105158;28;20024;-38
2023/10/06 04:41:20;;;;;;;9.57;6.05;;;;;;;;;;5105742;28;20203;-41
2023/10/06 04:43:48;;;;;;;6.75;6.05;;;;;;;;;;5105461;28;20317;-47
2023/10/06 04:46:15;;;;;;;7.88;6.18;;;;;;;;;;5105445;28;20031;-47
2023/10/06 04:48:42;;;;;;;8.82;6.45;;;;;;;;;;5105203;28;20042;-46
2023/10/06 04:51:09;;;;;;;7.20;5.50;;;;;;;;;;5105626;28;20311;-45
2023/10/06 04:53:36;;;;;;;6.65;5.50;;;;;;;;;;5099879;28;20224;-49
2023/10/06 04:56:03;;;;;;;6.35;5.22;;;;;;;;;;5097584;28;20020;-42
2023/10/06 04:58:30;;;;;;;5.97;4.90;;;;;;;;;;5105362;28;20203;-45
2023/10/06 05:01:00;;;;;;;5.50;4.75;;;;;;;;;;5105216;28;20032;-52
2023/10/06 05:03:27;;;;;;;7.68;4.85;;;;;;;;;;5105029;28;20020;-45
2023/10/06 05:05:55;;;;;;;6.07;4.30;;;;;;;;;;5104811;28;20119;-45
2023/10/06 05:08:24;;;;;;;5.95;4.68;;;;;;;;;;5104578;28;20035;-39
2023/10/06 05:10:51;;;;;;;6.68;4.65;;;;;;;;;;5105165;28;20020;-35
2023/10/06 05:13:19;;;;;;;5.40;4.40;;;;;;;;;;5105121;28;20289;-37
2023/10/06 05:15:46;;;;;;;5.70;4.80;;;;;;;;;;5104759;28;20354;-40
2023/10/06 05:18:21;;;;;;;5.72;4.85;;;;;;;;;;5104709;28;20016;-41
2023/10/06 05:20:48;;;;;;;5.30;4.53;;;;;;;;;;5104911;28;20024;-43
2023/10/06 05:23:14;;;;;;;4.82;4.03;;;;;;;;;;5104796;28;20065;-37
2023/10/06 05:25:42;;;;;;;6.55;3.78;;;;;;;;;;5104918;28;20032;-36
2023/10/06 05:28:10;;;;;;;5.50;4.00;;;;;;;;;;5104481;28;20085;-37
2023/10/06 05:30:38;;;;;;;6.03;4.28;;;;;;;;;;5104832;28;20415;-37
2023/10/06 05:33:07;;;;;;;4.60;4.03;;;;;;;;;;5104393;28;20019;-36
2023/10/06 05:35:41;;;;;;;4.82;3.75;;;;;;;;;;5104573;28;20024;-41
2023/10/06 05:38:08;;;;;;;4.55;3.75;;;;;;;;;;5104345;28;20038;-35
2023/10/06 05:40:35;;;;;;;5.55;4.00;;;;;;;;;;5104574;28;20059;-44
2023/10/06 05:43:04;;;;;;;3.88;3.45;;;;;;;;;;5104156;28;20095;-42
2023/10/06 05:45:31;;;;;;;5.82;4.03;;;;;;;;;;5104498;28;20031;-42
2023/10/06 05:47:58;;;;;;;5.63;3.63;;;;;;;;;;5104316;28;20073;-39
2023/10/06 05:50:29;;;;;;;4.55;3.53;;;;;;;;;;5104269;28;20028;-37
2023/10/06 05:53:01;;;;;;;3.55;3.25;;;;;;;;;;5104163;28;20020;-37
2023/10/06 05:55:41;;;;;;;4.45;3.70;;;;;;;;;;5104414;28;20065;-39
2023/10/06 05:58:19;;;;;;;4.75;3.47;;;;;;;;;;5103737;28;20058;-44
2023/10/06 06:00:50;;;;;;;10.93;3.50;;;;;;;;;;5104386;28;20193;-41
2023/10/06 06:03:20;;;;;;;3.83;3.42;;;;;;;;;;5103984;28;20032;-39
2023/10/06 06:05:52;;;;;;;3.38;3.00;;;;;;;;;;5103874;28;20225;-41
2023/10/06 06:08:19;;;;;;;4.22;3.30;;;;;;;;;;5103804;28;20092;-41
2023/10/06 06:10:45;;;;;;;3.75;3.38;;;;;;;;;;5104361;28;20032;-45
2023/10/06 06:13:18;;;;;;;4.00;3.58;;;;;;;;;;5104085;28;20312;-50
2023/10/06 06:15:45;;;;;;;4.03;3.47;;;;;;;;;;5104090;28;20028;-46
2023/10/06 06:18:13;;;;;;;4.53;3.70;;;;;;;;;;5103881;28;20020;-44
2023/10/06 06:20:43;;;;;;;4.82;3.63;;;;;;;;;;5104216;28;20043;-41
2023/10/06 06:23:15;;;;;;;7.13;4.22;;;;;;;;;;5103636;28;20242;-44
2023/10/06 06:25:42;;;;;;;5.85;3.75;;;;;;;;;;5104118;28;20031;-45
2023/10/06 06:28:12;;;;;;;4.95;3.75;;;;;;;;;;5103888;28;20111;-36
2023/10/06 06:30:39;;;;;;;4.60;4.10;;;;;;;;;;5104102;28;20027;-45
2023/10/06 06:33:12;;;;;;;4.80;3.85;;;;;;;;;;5103831;28;20021;-48
2023/10/06 06:35:42;;;;;;;4.80;4.03;;;;;;;;;;5103867;28;20095;-50
2023/10/06 06:38:12;;;;;;;4.32;3.88;;;;;;;;;;5103680;28;20079;-48
2023/10/06 06:40:39;;;;;;;5.13;4.00;;;;;;;;;;5104870;28;20043;-48
2023/10/06 06:43:11;;;;;;;4.05;3.65;;;;;;;;;;5107915;28;20023;-49
2023/10/06 06:45:41;;;;;;;5.00;4.10;;;;;;;;;;5107900;28;20216;-49
2023/10/06 06:48:16;;;;;;;4.70;4.20;;;;;;;;;;5107423;28;20039;-46
2023/10/06 06:50:48;;;;;;;6.88;4.05;;;;;;;;;;5107736;28;20024;-41
2023/10/06 06:53:18;;;;;;;4.40;3.80;;;;;;;;;;5107448;28;20038;-39
2023/10/06 06:55:45;;;;;;;4.10;3.70;;;;;;;;;;5107531;28;20351;-41
2023/10/06 06:58:16;;;;;;;4.32;3.78;;;;;;;;;;5107252;28;20035;-42
2023/10/06 07:00:43;;;;;;;4.57;4.18;;;;;;;;;;5107161;28;20036;-38
2023/10/06 07:03:10;;;;;;;7.20;4.57;;;;;;;;;;5107401;28;20047;-48
2023/10/06 07:05:37;;;;;;;5.70;4.13;;;;;;;;;;5107003;28;20123;-53
2023/10/06 07:08:05;;;;;;;6.22;4.38;;;;;;;;;;5107093;28;20316;-48
2023/10/06 07:10:31;;;;;;;4.75;4.35;;;;;;;;;;5107194;28;20275;-41
2023/10/06 07:12:58;;;;;;;5.80;3.97;;;;;;;;;;5107047;28;20091;-46
2023/10/06 07:15:29;;;;;;;6.18;4.07;;;;;;;;;;5107247;28;20032;-47
2023/10/06 07:17:58;;;;;;;5.07;4.45;;;;;;;;;;5107186;28;20016;-46
2023/10/06 07:20:27;;;;;;;4.95;3.92;;;;;;;;;;5107269;28;20036;-40
2023/10/06 07:22:55;;;;;;;4.78;3.97;;;;;;;;;;5106746;28;20020;-36
2023/10/06 07:25:24;;;;;;;4.20;3.80;;;;;;;;;;5107072;28;20032;-42
2023/10/06 07:27:52;;;;;;;5.85;3.92;;;;;;;;;;5106659;28;20344;-41
2023/10/06 07:30:22;;;;;;;4.38;3.60;;;;;;;;;;5106813;28;20083;-36
2023/10/06 07:32:51;;;;;;;6.88;4.10;;;;;;;;;;5106852;28;20016;-37
2023/10/06 07:35:18;;;;;;;4.15;3.20;;;;;;;;;;5107143;28;20036;-42
2023/10/06 07:37:46;;;;;;;5.88;3.70;;;;;;;;;;5106543;28;20016;-39
2023/10/06 07:40:13;;;;;;;5.25;3.30;;;;;;;;;;5106774;28;20060;-44
2023/10/06 07:42:46;;;;;;;5.40;3.22;;;;;;;;;;5106585;28;20028;-44
2023/10/06 07:45:13;;;;;;;6.68;2.80;;;;;;;;;;5106466;28;20191;-49
2023/10/06 07:47:42;;;;;;;3.35;2.88;;;;;;;;;;5106286;28;20103;-39
2023/10/06 07:50:09;;;;;;;4.22;2.80;;;;;;;;;;5106512;28;20196;-42
2023/10/06 07:52:37;;;;;;;3.25;2.60;;;;;;;;;;5106039;28;20027;-49
2023/10/06 07:55:09;;;;;;;4.22;2.50;;;;;;;;;;5106367;28;20038;-48
2023/10/06 07:57:45;;;;;;;3.25;2.22;;;;;;;;;;5100716;28;20016;-45
2023/10/06 08:00:18;;;;;;;2.33;2.13;;;;;;;;;;5090817;28;20032;-42
2023/10/06 08:02:45;;;;;;;2.60;1.90;;;;;;;;;;5105144;28;20027;-39
2023/10/06 08:05:12;;;;;;;3.72;2.00;;;;;;;;;;5105850;28;20060;-42
2023/10/06 08:07:43;;;;;;;2.60;1.50;;;;;;;;;;5106033;28;20216;-53
2023/10/06 08:10:13;;;;;;;2.90;1.55;;;;;;;;;;5106445;28;20035;-48
2023/10/06 08:12:44;;;;;;;2.38;1.80;;;;;;;;;;5106088;28;20091;-42
2023/10/06 08:15:16;;;;;;;2.75;1.92;;;;;;;;;;5105950;28;20304;-44
2023/10/06 08:17:46;;;;;;;2.00;1.80;;;;;;;;;;5105675;28;20073;-48
2023/10/06 08:20:15;;;;;;;2.95;2.17;;;;;;;;;;5105955;28;20091;-44
2023/10/06 08:22:46;;;;;;;15.55;2.35;;;;;;;;;;5105631;28;20102;-38
2023/10/06 08:25:13;;;;;;;2.35;1.73;;;;;;;;;;5105707;28;20024;-48
2023/10/06 08:27:43;;;;;;;3.53;2.42;;;;;;;;;;5105545;28;20028;-47
2023/10/06 08:30:17;;;;;;;3.70;2.40;;;;;;;;;;5105764;28;20031;-45
2023/10/06 08:32:47;;;;;;;2.67;2.10;;;;;;;;;;5105504;28;20032;-43
2023/10/06 08:35:14;;;;;;;3.50;2.10;;;;;;;;;;5105661;28;20032;-39
2023/10/06 08:37:42;;;;;;;2.28;2.03;;;;;;;;;;5105247;28;20038;-45
2023/10/06 08:40:16;;;;;;;3.85;2.22;;;;;;;;;;5105685;28;20085;-41
2023/10/06 08:42:52;;;;;;;4.10;2.75;;;;;;;;;;5105289;28;20118;-46
2023/10/06 08:45:25;;;;;;;2.50;2.30;;;;;;;;;;5105444;28;20036;-39
2023/10/06 08:47:58;;;;;;;4.45;2.30;;;;;;;;;;5105137;28;20040;-50
2023/10/06 08:50:32;;;;;;;12.13;2.75;;;;;;;;;;5105285;28;20036;-44
2023/10/06 08:53:00;;;;;;;6.82;3.00;;;;;;;;;;5105278;28;20096;-56
2023/10/06 08:55:27;;;;;;;10.27;3.13;;;;;;;;;;5105438;28;20320;-46
2023/10/06 08:57:55;;;;;;;13.45;3.25;;;;;;;;;;5104934;28;20032;-50
2023/10/06 09:00:24;;;;;;;22.15;3.72;;;;;;;;;;5105167;28;20095;-51
2023/10/06 09:02:54;;;;;;;12.50;3.38;;;;;;;;;;5104669;28;20032;-48
2023/10/06 09:05:21;;;;;;;7.00;2.60;;;;;;;;;;5104459;28;20060;-39
2023/10/06 09:08:09;;;;;;;4.43;2.90;;;;;;;;;;5089779;28;20028;-48
2023/10/06 09:10:56;;;;;;;6.72;2.70;;;;;;;;;;5084667;28;20284;-46
2023/10/06 09:13:23;;;;;;;4.15;2.60;;;;;;;;;;5084014;28;20032;-50
2023/10/06 09:15:57;;;;;;;5.75;2.53;;;;;;;;;;5084620;28;20066;-47
2023/10/06 09:18:27;;;;;;;4.72;2.70;;;;;;;;;;5084347;28;20032;-38
2023/10/06 09:20:54;;;;;;;4.88;2.97;;;;;;;;;;5084574;28;20032;-37
2023/10/06 09:23:34;;;;;;;4.63;3.03;;;;;;;;;;5084303;28;20028;-43
2023/10/06 09:26:01;;;;;;;4.20;2.83;;;;;;;;;;5084805;28;20056;-40
2023/10/06 09:28:28;;;;;;;6.22;3.25;;;;;;;;;;5084097;28;20039;-43
2023/10/06 09:31:01;;;;;;;5.43;3.03;;;;;;;;;;5087645;28;20043;-47
2023/10/06 09:33:49;;;;;;;5.50;3.08;;;;;;;;;;5104374;28;20031;-40
2023/10/06 09:36:21;;;;;;;5.95;3.30;;;;;;;;;;5104861;28;20034;-44
2023/10/06 09:38:48;;;;;;;5.60;3.08;;;;;;;;;;5104204;28;20255;-42
2023/10/06 09:41:33;;;;;;;3.90;2.97;;;;;;;;;;5104817;28;20042;-41
2023/10/06 09:44:04;;;;;;;6.65;3.10;;;;;;;;;;5104117;28;20024;-42
2023/10/06 09:46:30;;;;;;;5.53;2.65;;;;;;;;;;5104628;28;20091;-45
2023/10/06 09:48:59;;;;;;;5.70;2.72;;;;;;;;;;5095931;28;20016;-38
2023/10/06 09:51:30;;;;;;;4.55;2.75;;;;;;;;;;5087495;28;20052;-40
2023/10/06 09:53:58;;;;;;;5.35;2.70;;;;;;;;;;5104158;28;20024;-52
2023/10/06 09:56:24;;;;;;;4.30;3.00;;;;;;;;;;5104616;28;20070;-35
2023/10/06 09:58:51;;;;;;;6.75;2.83;;;;;;;;;;5103986;28;20087;-46
2023/10/06 10:01:23;;;;;;;5.55;2.97;;;;;;;;;;5104472;28;20055;-46
2023/10/06 10:03:54;;;;;;;4.32;3.00;;;;;;;;;;5104021;28;20020;-44
2023/10/06 10:06:22;;;;;;;6.30;3.38;;;;;;;;;;5103756;28;20235;-44
2023/10/06 10:08:51;;;;;;;5.93;3.50;;;;;;;;;;5103984;28;20024;-44
2023/10/06 10:11:29;;;;;;;6.40;3.60;;;;;;;;;;5104392;28;20031;-39
2023/10/06 10:14:02;;;;;;;8.13;3.88;;;;;;;;;;5103950;28;20217;-49
2023/10/06 10:16:38;;;;;;;7.32;3.58;;;;;;;;;;5106262;28;20104;-45
2023/10/06 10:19:07;;;;;;;8.80;3.95;;;;;;;;;;5108230;28;20035;-37
2023/10/06 10:21:35;;;;;;;11.90;3.88;;;;;;;;;;5108574;28;20077;-40
2023/10/06 10:24:06;;;;;;;7.32;3.50;;;;;;;;;;5107798;28;20044;-43
2023/10/06 10:26:35;;;;;;;4.88;3.60;;;;;;;;;;5108374;28;20304;-41
2023/10/06 10:29:15;;;;;;;9.45;3.72;;;;;;;;;;5108172;28;20073;-44
2023/10/06 10:31:51;;;;;;;9.23;3.75;;;;;;;;;;5106107;28;20036;-44
2023/10/06 10:34:21;;;;;;;6.47;3.28;;;;;;;;;;5088470;28;20028;-41
2023/10/06 10:37:08;;;;;;;4.22;3.22;;;;;;;;;;5106791;28;20024;-47
2023/10/06 10:39:49;;;;;;;5.90;3.20;;;;;;;;;;5086144;28;20079;-50
2023/10/06 10:42:21;;;;;;;5.03;3.57;;;;;;;;;;5087672;28;20032;-43
2023/10/06 10:44:48;;;;;;;6.80;3.38;;;;;;;;;;5092079;28;20023;-38
2023/10/06 10:47:20;;;;;;;7.35;3.42;;;;;;;;;;5107346;28;20052;-37
2023/10/06 10:49:48;;;;;;;4.88;3.13;;;;;;;;;;5107604;28;20125;-43
2023/10/06 10:52:15;;;;;;;5.43;3.58;;;;;;;;;;5107520;28;20122;-45
2023/10/06 10:54:46;;;;;;;4.38;3.35;;;;;;;;;;5096232;28;20126;-38
2023/10/06 10:57:19;;;;;;;7.15;3.47;;;;;;;;;;5097547;28;20039;-44
2023/10/06 11:02:41;;;;;;;8.43;3.08;;;;;;;;;;5097768;28;20030;-40
2023/10/06 11:05:07;;;;;;;8.43;3.03;;;;;;;;;;5099054;28;20075;-39
2023/10/06 11:07:35;;;;;;;8.43;2.90;;;;;;;;;;5107166;28;20212;-42
2023/10/06 11:10:02;;;;;;;5.82;2.80;;;;;;;;;;5105281;28;20028;-39
2023/10/06 11:12:30;;;;;;;6.32;3.00;;;;;;;;;;5107343;28;20035;-41
2023/10/06 11:15:16;;;;;;;8.38;2.90;;;;;;;;;;5105942;28;20300;-45
2023/10/06 11:17:43;;;;;;;7.43;3.05;;;;;;;;;;5106057;28;20216;-46
2023/10/06 11:20:21;;;;;;;6.78;3.15;;;;;;;;;;5105949;28;20039;-41
2023/10/06 11:23:00;;;;;;;8.43;3.75;;;;;;;;;;5105261;28;20084;-44
2023/10/06 11:25:27;;;;;;;13.75;3.80;;;;;;;;;;5105455;28;20032;-39
2023/10/06 11:28:12;;;;;;;8.77;3.60;;;;;;;;;;5104545;28;20126;-40
2023/10/06 11:30:42;;;;;;;5.10;3.72;;;;;;;;;;5105471;28;20036;-38
2023/10/06 11:33:10;;;;;;;8.45;3.72;;;;;;;;;;5105038;28;20099;-42
2023/10/06 11:35:38;;;;;;;4.05;3.45;;;;;;;;;;5105987;28;20050;-46
2023/10/06 11:38:10;;;;;;;9.10;3.80;;;;;;;;;;5106576;28;20077;-47
2023/10/06 11:40:37;;;;;;;8.45;3.45;;;;;;;;;;5106838;28;20024;-46
2023/10/06 11:43:21;;;;;;;7.85;3.90;;;;;;;;;;5106323;28;20099;-40
2023/10/06 11:45:48;;;;;;;5.75;3.80;;;;;;;;;;5106739;28;20028;-38
2023/10/06 11:48:28;;;;;;;5.97;3.53;;;;;;;;;;5106192;28;20035;-40
2023/10/06 11:51:12;;;;;;;5.50;4.00;;;;;;;;;;5106796;28;20024;-45
2023/10/06 11:53:40;;;;;;;6.50;3.75;;;;;;;;;;5106120;28;20126;-35
2023/10/06 11:56:12;;;;;;;5.47;3.90;;;;;;;;;;5106648;28;20250;-45
2023/10/06 11:58:42;;;;;;;8.20;4.13;;;;;;;;;;5106429;28;20313;-42
2023/10/06 12:01:36;;;;;;;7.05;4.35;;;;;;;;;;5106532;28;20148;-52
2023/10/06 12:04:06;;;;;;;5.43;4.25;;;;;;;;;;5105934;28;20032;-48
2023/10/06 12:06:43;;;;;;;7.78;4.07;;;;;;;;;;5105845;28;20056;-36
2023/10/06 12:09:13;;;;;;;5.68;3.90;;;;;;;;;;5106024;28;20096;-46
2023/10/06 12:11:40;;;;;;;6.15;4.03;;;;;;;;;;5105984;28;20020;-36
2023/10/06 12:14:06;;;;;;;6.25;4.43;;;;;;;;;;5105935;28;20038;-41
2023/10/06 12:16:36;;;;;;;6.05;3.80;;;;;;;;;;5106147;28;20233;-44
2023/10/06 12:19:05;;;;;;;7.00;3.90;;;;;;;;;;5106091;28;20182;-43
2023/10/06 12:21:32;;;;;;;5.03;4.00;;;;;;;;;;5106193;28;20032;-44
2023/10/06 12:23:59;;;;;;;5.95;3.80;;;;;;;;;;5105676;28;20035;-40
2023/10/06 12:26:26;;;;;;;4.20;3.78;;;;;;;;;;5106063;28;20016;-40
2023/10/06 12:28:54;;;;;;;8.52;3.75;;;;;;;;;;5105641;28;20024;-48
2023/10/06 12:31:20;;;;;;;5.50;4.28;;;;;;;;;;5105886;28;20035;-47
2023/10/06 12:33:47;;;;;;;4.97;3.95;;;;;;;;;;5105530;28;20040;-39
2023/10/06 12:36:15;;;;;;;5.47;3.80;;;;;;;;;;5105954;28;20040;-47
2023/10/06 12:38:44;;;;;;;6.05;3.97;;;;;;;;;;5104614;28;20055;-41
2023/10/06 12:41:12;;;;;;;4.10;3.17;;;;;;;;;;5105799;28;20031;-54
2023/10/06 12:43:38;;;;;;;4.13;3.60;;;;;;;;;;5105329;28;20024;-41
2023/10/06 12:46:08;;;;;;;3.92;3.53;;;;;;;;;;5105606;28;20332;-47
2023/10/06 12:48:38;;;;;;;6.65;3.30;;;;;;;;;;5105130;28;20181;-39
2023/10/06 12:51:12;;;;;;;4.55;3.17;;;;;;;;;;5105622;28;20042;-39
2023/10/06 12:53:39;;;;;;;5.57;3.30;;;;;;;;;;5105024;28;20037;-41
2023/10/06 12:56:06;;;;;;;4.03;3.20;;;;;;;;;;5105461;28;20300;-37
2023/10/06 12:58:33;;;;;;;4.60;2.72;;;;;;;;;;5105078;28;20031;-37
2023/10/06 13:01:00;;;;;;;20.98;4.80;;;;;;;;;;5105000;28;20036;-47
2023/10/06 13:03:27;;;;;;;15.32;4.07;;;;;;;;;;5104926;28;20027;-44
2023/10/06 13:05:53;;;;;;;18.40;4.15;;;;;;;;;;5104718;28;20056;-41
2023/10/06 13:08:24;;;;;;;5.30;3.35;;;;;;;;;;5104655;28;20031;-35
2023/10/06 13:10:54;;;;;;;7.13;3.90;;;;;;;;;;5105027;28;20036;-40
2023/10/06 13:13:21;;;;;;;6.55;3.15;;;;;;;;;;5105042;28;20016;-35
2023/10/06 13:15:48;;;;;;;4.88;3.08;;;;;;;;;;5104897;28;20064;-45
2023/10/06 13:18:18;;;;;;;3.72;3.00;;;;;;;;;;5104612;28;20020;-41
2023/10/06 13:20:45;;;;;;;6.57;3.25;;;;;;;;;;5104827;28;20039;-37
2023/10/06 13:23:12;;;;;;;4.45;3.50;;;;;;;;;;5104589;28;20050;-39
2023/10/06 13:25:39;;;;;;;6.22;2.95;;;;;;;;;;5104886;28;20020;-42
2023/10/06 13:28:15;;;;;;;5.53;3.33;;;;;;;;;;5104419;28;20019;-45
2023/10/06 13:30:45;;;;;;;6.45;3.22;;;;;;;;;;5104714;28;20043;-44
2023/10/06 13:33:14;;;;;;;6.50;3.20;;;;;;;;;;5104307;28;20177;-41
2023/10/06 13:35:41;;;;;;;3.50;3.20;;;;;;;;;;5104508;28;20304;-41
2023/10/06 13:38:09;;;;;;;4.68;3.05;;;;;;;;;;5104501;28;20020;-35
2023/10/06 13:40:39;;;;;;;6.38;3.75;;;;;;;;;;5104572;28;20189;-48
2023/10/06 13:43:10;;;;;;;4.38;3.17;;;;;;;;;;5104128;28;20031;-37
2023/10/06 13:45:39;;;;;;;3.92;3.30;;;;;;;;;;5104620;28;20027;-36
2023/10/06 13:48:09;;;;;;;3.70;3.10;;;;;;;;;;5104048;28;20343;-46
2023/10/06 13:50:37;;;;;;;3.58;3.28;;;;;;;;;;5104445;28;20023;-36
2023/10/06 13:53:04;;;;;;;5.47;3.10;;;;;;;;;;5104475;28;20079;-39
2023/10/06 13:55:31;;;;;;;4.00;3.53;;;;;;;;;;5104222;28;20031;-39
2023/10/06 13:58:08;;;;;;;7.82;4.00;;;;;;;;;;5104238;28;20335;-37
2023/10/06 14:00:41;;;;;;;7.38;4.28;;;;;;;;;;5104338;28;20091;-44
2023/10/06 14:03:08;;;;;;;7.82;4.60;;;;;;;;;;5103907;28;20027;-43
2023/10/06 14:05:42;;;;;;;6.57;3.55;;;;;;;;;;5103728;28;20366;-43
2023/10/06 14:08:09;;;;;;;7.75;4.20;;;;;;;;;;5103856;28;20032;-44
2023/10/06 14:10:36;;;;;;;6.35;4.28;;;;;;;;;;5104155;28;20016;-38
2023/10/06 14:15:49;;;;;;;4.75;4.05;;;;;;;;;;5104016;28;20314;-47
2023/10/06 14:18:16;;;;;;;8.13;4.18;;;;;;;;;;5103745;28;20381;-45
2023/10/06 14:20:45;;;;;;;5.65;3.97;;;;;;;;;;5103791;28;20044;-44
2023/10/06 14:23:13;;;;;;;5.88;4.45;;;;;;;;;;5104083;28;20039;-37
2023/10/06 14:25:41;;;;;;;8.98;4.30;;;;;;;;;;5104009;28;20031;-39
2023/10/06 14:28:09;;;;;;;7.18;4.20;;;;;;;;;;5103555;28;20259;-40
2023/10/06 14:30:41;;;;;;;7.35;3.92;;;;;;;;;;5103977;28;20028;-36
2023/10/06 14:46:32;;;;;;;5.47;4.20;;;;;;;;;;5104116;28;20039;-36
2023/10/06 14:49:01;;;;;;;5.40;3.88;;;;;;;;;;5103770;28;20075;-39
2023/10/06 14:51:29;;;;;;;5.72;3.90;;;;;;;;;;5103928;28;20028;-43
2023/10/06 14:54:00;;;;;;;5.60;3.85;;;;;;;;;;5103508;28;20048;-43
2023/10/06 14:56:27;;;;;;;6.38;3.58;;;;;;;;;;5104063;28;20018;-41
2023/10/06 14:58:57;;;;;;;4.97;4.07;;;;;;;;;;5103446;28;20039;-40
2023/10/06 15:01:30;;;;;;;5.65;3.75;;;;;;;;;;5104444;28;20048;-45
2023/10/06 15:03:59;;;;;;;7.28;4.20;;;;;;;;;;5107099;28;20028;-41
2023/10/06 15:06:26;;;;;;;6.32;4.10;;;;;;;;;;5106956;28;20059;-39
2023/10/06 15:08:55;;;;;;;6.85;4.20;;;;;;;;;;5107300;28;20012;-43
2023/10/06 15:11:22;;;;;;;4.30;3.90;;;;;;;;;;5106832;28;20209;-39
2023/10/06 15:13:49;;;;;;;5.80;3.90;;;;;;;;;;5107037;28;20212;-44
2023/10/06 15:16:18;;;;;;;4.68;3.70;;;;;;;;;;5107342;28;20087;-40
2023/10/06 15:18:49;;;;;;;6.20;3.80;;;;;;;;;;5106801;28;20038;-39
2023/10/06 15:21:16;;;;;;;5.38;4.15;;;;;;;;;;5107384;28;20047;-41
2023/10/06 15:23:47;;;;;;;4.38;3.92;;;;;;;;;;5106767;28;20023;-36